Time;durP1;ratioP1;P1;durP2;ratioP2;P2;SDS_P1;SDS_P2;PMS_P1;PMS_P2;Temp;Humidity;BMP_temperature;BMP_pressure;BME280_temperature;BME280_humidity;BME280_pressure;Samples;Min_cycle;Max_cycle;Signal;HPM_P1;HPM_P2
2023/09/30 00:00:00;;;;;;;18.20;5.47;;;;;;;-145.69;62.96;52048.31;5116407;27;20203;-79
2023/09/30 00:02:27;;;;;;;17.23;5.55;;;;;;;-145.69;62.46;52044.38;5116160;28;20232;-79
2023/09/30 00:04:53;;;;;;;16.50;5.00;;;;;;;-145.69;62.34;52038.44;5116052;28;20586;-80
2023/09/30 00:07:20;;;;;;;17.88;5.57;;;;;;;-145.69;62.71;52024.56;5114876;28;20208;-79
2023/09/30 00:09:46;;;;;;;19.38;5.70;;;;;;;-145.69;62.48;52048.31;5116267;27;20198;-79
2023/09/30 00:12:13;;;;;;;16.35;5.28;;;;;;;-145.69;62.63;52054.25;5116170;28;20253;-79
2023/09/30 00:14:39;;;;;;;17.98;4.90;;;;;;;-145.69;62.91;52040.41;5116765;28;20201;-79
2023/09/30 00:17:07;;;;;;;13.65;4.85;;;;;;;-145.69;62.54;52064.16;5114619;28;20556;-79
2023/09/30 00:19:34;;;;;;;16.30;4.70;;;;;;;-145.69;62.85;52028.53;5127091;27;20232;-79
2023/09/30 00:22:00;;;;;;;13.27;4.75;;;;;;;-145.69;63.18;52066.16;5130017;27;20190;-79
2023/09/30 00:24:27;;;;;;;15.60;4.88;;;;;;;-145.69;63.20;52048.31;5115887;28;20763;-79
2023/09/30 00:26:54;;;;;;;14.57;4.85;;;;;;;-145.69;63.45;52083.97;5115968;28;20197;-79
2023/09/30 00:29:20;;;;;;;18.10;4.90;;;;;;;-145.69;63.55;52048.31;5128852;27;20199;-80
2023/09/30 00:31:47;;;;;;;15.68;5.03;;;;;;;-145.69;63.14;52080.00;5136238;27;20200;-79
2023/09/30 00:34:15;;;;;;;15.55;4.47;;;;;;;-145.69;63.16;52044.38;5136415;27;20201;-79
2023/09/30 00:36:41;;;;;;;16.50;4.80;;;;;;;-145.69;64.50;52097.84;5136211;27;20204;-79
2023/09/30 00:39:09;;;;;;;17.38;5.70;;;;;;;-145.69;64.29;52072.09;5135890;27;20203;-79
2023/09/30 00:41:35;;;;;;;18.30;5.38;;;;;;;-145.69;64.09;52076.03;5136365;27;20207;-78
2023/09/30 00:44:02;;;;;;;14.40;4.80;;;;;;;-145.69;63.99;52083.97;5135861;27;20721;-79
2023/09/30 00:46:31;;;;;;;17.23;4.63;;;;;;;-145.69;64.56;52080.00;5136129;27;20201;-79
2023/09/30 00:49:00;;;;;;;16.33;5.20;;;;;;;-145.69;64.60;52060.22;5135716;27;20540;-79
2023/09/30 00:51:29;;;;;;;19.15;5.82;;;;;;;-145.69;65.02;52091.88;5135177;27;20196;-79
2023/09/30 00:53:58;;;;;;;17.00;5.20;;;;;;;-145.69;64.21;52060.22;5135890;27;20197;-79
2023/09/30 00:56:28;;;;;;;13.23;4.65;;;;;;;-145.69;65.69;52048.31;5135622;27;20675;-79
2023/09/30 00:58:56;;;;;;;14.90;4.95;;;;;;;-145.69;64.51;52060.22;5135558;27;20196;-78
2023/09/30 01:01:23;;;;;;;14.60;4.82;;;;;;;-145.69;64.04;52052.28;5120766;27;20193;-79
2023/09/30 01:03:50;;;;;;;11.70;4.80;;;;;;;-145.69;64.06;52034.47;5122445;27;20574;-79
2023/09/30 01:06:16;;;;;;;16.52;4.82;;;;;;;-145.69;63.50;52091.88;5113956;27;20221;-79
2023/09/30 01:08:44;;;;;;;13.20;4.38;;;;;;;-145.69;63.06;52095.84;5134982;27;20555;-79
2023/09/30 01:11:11;;;;;;;15.65;4.50;;;;;;;-145.69;64.82;52072.09;5117696;27;20194;-79
2023/09/30 01:13:38;;;;;;;20.33;5.07;;;;;;;-145.69;65.48;52089.91;5115140;28;20197;-79
2023/09/30 01:16:05;;;;;;;16.05;5.35;;;;;;;-145.69;65.74;52107.72;5129275;27;20197;-79
2023/09/30 01:18:32;;;;;;;14.35;4.70;;;;;;;-145.69;65.94;52099.81;5134883;27;20229;-79
2023/09/30 01:21:03;;;;;;;15.93;4.88;;;;;;;-145.69;65.69;52107.72;5135533;27;20196;-79
2023/09/30 01:23:31;;;;;;;13.30;4.45;;;;;;;-145.69;67.71;52082.00;5116231;27;20235;-79
2023/09/30 01:25:58;;;;;;;14.10;4.22;;;;;;;-145.69;66.83;52076.03;5114935;27;20205;-80
2023/09/30 01:28:26;;;;;;;15.05;4.53;;;;;;;-145.69;67.79;52085.94;5114515;28;20193;-79
2023/09/30 01:30:53;;;;;;;18.77;4.78;;;;;;;-145.69;67.89;52115.66;5114745;28;20225;-79
2023/09/30 01:33:19;;;;;;;16.63;5.13;;;;;;;-145.69;68.68;52087.94;5114821;28;20197;-79
2023/09/30 01:35:45;;;;;;;24.88;4.60;;;;;;;-145.69;67.72;52072.09;5114618;28;20200;-79
2023/09/30 01:38:12;;;;;;;11.40;4.45;;;;;;;-145.69;67.86;52087.94;5114040;28;20204;-79
2023/09/30 01:40:40;;;;;;;19.58;4.65;;;;;;;-145.69;68.62;52050.31;5114628;28;20204;-80
2023/09/30 01:43:06;;;;;;;15.57;3.95;;;;;;;-145.69;67.34;52121.59;5124001;27;20225;-79
2023/09/30 01:45:32;;;;;;;16.60;4.60;;;;;;;-145.69;67.13;52109.72;5134826;27;20193;-80
2023/09/30 01:47:59;;;;;;;13.23;4.28;;;;;;;-145.69;67.67;52068.13;5134981;27;20204;-79
2023/09/30 01:50:25;;;;;;;15.25;4.55;;;;;;;-145.69;67.83;52127.53;5132612;27;20208;-79
2023/09/30 01:52:52;;;;;;;16.35;5.53;;;;;;;-145.69;68.79;52097.84;5129709;27;20200;-79
2023/09/30 01:55:19;;;;;;;15.57;4.05;;;;;;;-145.69;68.54;52089.91;5117614;27;20197;-79
2023/09/30 01:57:46;;;;;;;14.90;5.57;;;;;;;-145.69;67.68;52076.03;5114412;28;20206;-81
2023/09/30 02:00:13;;;;;;;15.00;4.68;;;;;;;-145.69;67.50;52109.72;5114223;28;20197;-80
2023/09/30 02:02:40;;;;;;;16.33;4.47;;;;;;;-145.69;67.80;52103.78;5118884;27;20189;-80
2023/09/30 02:05:07;;;;;;;13.98;4.25;;;;;;;-145.69;67.45;52099.81;5132600;27;20674;-80
2023/09/30 02:07:35;;;;;;;16.98;4.72;;;;;;;-145.69;67.86;52091.88;5133847;27;20720;-79
2023/09/30 02:10:01;;;;;;;15.60;4.70;;;;;;;-145.69;68.58;52099.81;5113450;28;20193;-79
2023/09/30 02:12:28;;;;;;;15.80;4.78;;;;;;;-145.69;68.67;52107.72;5113910;28;20209;-80
2023/09/30 02:14:56;;;;;;;19.65;5.18;;;;;;;-145.69;69.43;52080.00;5113985;28;20247;-80
2023/09/30 02:17:22;;;;;;;13.45;4.22;;;;;;;-145.69;68.93;52119.63;5114002;28;20205;-79
2023/09/30 02:19:49;;;;;;;14.48;4.80;;;;;;;-145.69;68.83;52080.00;5113363;28;20232;-80
2023/09/30 02:22:16;;;;;;;12.18;4.60;;;;;;;-145.69;69.08;52072.09;5113597;28;20653;-80
2023/09/30 02:24:42;;;;;;;12.60;4.05;;;;;;;-145.69;68.94;52111.69;5113419;28;20724;-80
2023/09/30 02:27:09;;;;;;;13.20;4.53;;;;;;;-145.69;69.25;52064.16;5113662;28;20683;-80
2023/09/30 02:29:35;;;;;;;12.65;4.13;;;;;;;-145.69;69.52;52111.69;5112998;28;20565;-80
2023/09/30 02:32:03;;;;;;;11.77;4.13;;;;;;;-145.69;69.26;52072.09;5113325;28;20201;-80
2023/09/30 02:34:31;;;;;;;15.02;4.63;;;;;;;-145.69;69.18;52091.88;5132268;27;20197;-79
2023/09/30 02:36:59;;;;;;;16.38;3.90;;;;;;;-145.69;69.36;52066.16;5133838;27;20203;-79
2023/09/30 02:39:27;;;;;;;11.60;4.25;;;;;;;-145.69;69.02;52070.09;5123619;27;20196;-79
2023/09/30 02:41:53;;;;;;;11.15;4.03;;;;;;;-145.69;69.24;52095.84;5128282;27;20215;-79
2023/09/30 02:44:19;;;;;;;15.23;4.20;;;;;;;-145.69;69.29;52070.09;5113387;28;20222;-79
2023/09/30 02:46:45;;;;;;;15.30;4.45;;;;;;;-145.69;68.89;52083.97;5113351;28;20200;-80
2023/09/30 02:49:13;;;;;;;12.40;4.32;;;;;;;-145.69;69.02;52068.13;5113534;28;20304;-79
2023/09/30 02:51:40;;;;;;;11.25;4.18;;;;;;;-145.69;68.82;52068.13;5119858;27;20670;-80
2023/09/30 02:54:06;;;;;;;10.57;3.90;;;;;;;-145.69;69.25;52107.72;5120775;28;20200;-79
2023/09/30 02:56:33;;;;;;;15.63;4.00;;;;;;;-145.69;68.62;52085.94;5118883;27;20208;-80
2023/09/30 02:59:00;;;;;;;14.15;4.35;;;;;;;-145.69;68.60;52107.72;5114318;28;20203;-80
2023/09/30 03:01:27;;;;;;;9.57;4.07;;;;;;;-145.69;68.74;52056.25;5113211;27;20580;-79
2023/09/30 03:03:53;;;;;;;13.50;4.30;;;;;;;-145.69;68.72;52074.06;5113380;28;20232;-80
2023/09/30 03:06:21;;;;;;;12.00;4.22;;;;;;;-145.69;68.47;52085.94;5113438;28;20201;-80
2023/09/30 03:08:48;;;;;;;13.25;4.40;;;;;;;-145.69;68.35;52066.16;5113267;28;20200;-79
2023/09/30 03:11:14;;;;;;;12.00;3.97;;;;;;;-145.69;68.41;52060.22;5113245;28;20201;-79
2023/09/30 03:13:42;;;;;;;14.30;3.88;;;;;;;-145.69;67.70;52056.25;5113252;28;20197;-79
2023/09/30 03:16:09;;;;;;;14.05;4.35;;;;;;;-145.69;67.38;52091.88;5113225;28;20644;-79
2023/09/30 03:18:35;;;;;;;11.60;4.10;;;;;;;-145.69;67.27;52062.19;5113003;28;20229;-80
2023/09/30 03:21:13;;;;;;;16.15;4.40;;;;;;;-145.69;66.80;52074.06;5112844;28;20202;-80
2023/09/30 03:23:41;;;;;;;11.50;3.88;;;;;;;-145.69;67.56;52076.03;5113119;28;20225;-80
2023/09/30 03:26:09;;;;;;;14.77;4.65;;;;;;;-145.69;67.63;52076.03;5122791;28;20193;-79
2023/09/30 03:28:36;;;;;;;15.77;4.80;;;;;;;-145.69;67.50;52091.88;5133484;27;20254;-79
2023/09/30 03:31:04;;;;;;;11.45;3.97;;;;;;;-145.69;67.54;52064.16;5133591;27;20208;-80
2023/09/30 03:33:31;;;;;;;13.05;4.38;;;;;;;-145.69;67.37;52044.38;5133717;27;20204;-80
2023/09/30 03:35:58;;;;;;;11.45;4.00;;;;;;;-145.69;67.26;52052.28;5133399;27;20576;-80
2023/09/30 03:38:25;;;;;;;13.50;4.40;;;;;;;-145.69;67.17;52080.00;5133550;27;20201;-79
2023/09/30 03:40:54;;;;;;;10.82;4.10;;;;;;;-145.69;67.46;52054.25;5133515;27;20254;-79
2023/09/30 03:43:21;;;;;;;14.68;4.50;;;;;;;-145.69;67.19;52076.03;5137310;27;20609;-80
2023/09/30 03:45:47;;;;;;;12.07;4.60;;;;;;;-145.69;67.53;52082.00;5137447;27;20228;-80
2023/09/30 03:48:14;;;;;;;13.27;4.05;;;;;;;-145.69;67.54;52087.94;5137229;27;20559;-80
2023/09/30 03:50:40;;;;;;;12.38;3.70;;;;;;;-145.69;67.40;52070.09;5133360;27;20576;-80
2023/09/30 03:53:07;;;;;;;16.70;4.15;;;;;;;-145.69;67.00;52093.88;5124171;27;20667;-80
2023/09/30 03:55:34;;;;;;;12.60;3.97;;;;;;;-145.69;67.20;52080.00;5111270;27;20201;-80
2023/09/30 03:58:03;;;;;;;12.60;4.40;;;;;;;-145.69;67.63;52042.38;5121127;27;20205;-80
2023/09/30 04:00:30;;;;;;;9.52;3.72;;;;;;;-145.69;67.62;52076.03;5116891;27;20218;-79
2023/09/30 04:02:58;;;;;;;12.80;3.90;;;;;;;-145.69;68.02;52074.06;5123292;27;20651;-80
2023/09/30 04:05:28;;;;;;;11.73;3.92;;;;;;;-145.69;67.97;52080.00;5136188;27;20269;-80
2023/09/30 04:07:55;;;;;;;11.75;4.20;;;;;;;-145.69;67.63;52068.13;5096836;28;20612;-80
2023/09/30 04:10:22;;;;;;;16.98;4.63;;;;;;;-145.69;67.70;52076.03;5095799;28;20228;-80
2023/09/30 04:12:49;;;;;;;12.98;3.58;;;;;;;-145.69;67.30;52087.94;5098425;28;20193;-79
2023/09/30 04:15:16;;;;;;;13.63;3.95;;;;;;;-145.69;67.13;52072.09;5119507;27;20201;-80
2023/09/30 04:17:43;;;;;;;13.00;3.53;;;;;;;-145.69;67.33;52087.94;5115738;28;20242;-80
2023/09/30 04:20:15;;;;;;;17.05;4.53;;;;;;;-145.69;67.60;52083.97;5116045;28;20197;-79
2023/09/30 04:22:46;;;;;;;13.35;4.05;;;;;;;-145.69;66.73;52103.78;5122947;27;20197;-80
2023/09/30 04:25:16;;;;;;;12.75;4.55;;;;;;;-145.69;68.03;52068.13;5135191;27;20460;-79
2023/09/30 04:27:42;;;;;;;12.57;3.78;;;;;;;-145.69;66.93;52052.28;5136853;27;20243;-80
2023/09/30 04:30:10;;;;;;;9.32;3.42;;;;;;;-145.69;67.28;52105.75;5135908;27;20197;-80
2023/09/30 04:32:39;;;;;;;10.95;3.45;;;;;;;-145.69;67.16;52068.13;5095560;28;20206;-80
2023/09/30 04:35:08;;;;;;;10.25;3.55;;;;;;;-145.69;67.09;52030.50;5095335;28;20224;-80
2023/09/30 04:37:36;;;;;;;13.07;4.22;;;;;;;-145.69;67.15;52078.03;5095508;28;20198;-80
2023/09/30 04:40:07;;;;;;;10.35;3.85;;;;;;;-145.69;67.16;52078.03;5095389;28;20206;-80
2023/09/30 04:42:35;;;;;;;7.95;3.13;;;;;;;-145.69;66.73;52040.41;5095395;28;20194;-79
2023/09/30 04:45:02;;;;;;;7.93;3.33;;;;;;;-145.69;66.72;52083.97;5095132;28;20614;-79
2023/09/30 04:47:29;;;;;;;10.50;3.65;;;;;;;-145.69;66.52;52060.22;5095112;28;20243;-79
2023/09/30 04:49:58;;;;;;;9.07;3.50;;;;;;;-145.69;66.91;52064.16;5094922;28;20198;-79
2023/09/30 04:52:27;;;;;;;14.18;4.30;;;;;;;-145.69;67.48;52087.94;5098370;27;20237;-79
2023/09/30 04:54:53;;;;;;;10.18;3.53;;;;;;;-145.69;67.03;52083.97;5114659;28;20250;-79
2023/09/30 04:57:20;;;;;;;10.73;3.83;;;;;;;-145.69;66.87;52072.09;5121096;27;20216;-79
2023/09/30 04:59:47;;;;;;;14.13;3.53;;;;;;;-145.69;66.70;52068.13;5125078;27;20568;-79
2023/09/30 05:02:14;;;;;;;15.70;4.15;;;;;;;-145.69;66.72;52076.03;5115235;28;20261;-80
2023/09/30 05:04:41;;;;;;;10.05;4.05;;;;;;;-145.69;67.05;52074.06;5115318;28;20316;-79
2023/09/30 05:07:09;;;;;;;8.32;3.65;;;;;;;-145.69;67.53;52074.06;5115035;28;20466;-79
2023/09/30 05:09:36;;;;;;;11.85;4.00;;;;;;;-145.69;67.08;52056.25;5097799;28;20209;-79
2023/09/30 05:12:04;;;;;;;16.48;4.60;;;;;;;-145.69;67.03;52080.00;5094829;28;20198;-79
2023/09/30 05:14:30;;;;;;;13.85;3.78;;;;;;;-145.69;66.93;52052.28;5094563;28;20645;-79
2023/09/30 05:16:57;;;;;;;11.85;3.72;;;;;;;-145.69;66.53;52091.88;5094367;28;20581;-78
2023/09/30 05:19:23;;;;;;;11.32;3.90;;;;;;;-145.69;66.52;52064.16;5094164;28;20230;-79
2023/09/30 05:21:50;;;;;;;9.57;3.55;;;;;;;-145.69;66.21;52099.81;5094536;28;20198;-79
2023/09/30 05:24:19;;;;;;;14.15;3.78;;;;;;;-145.69;66.07;52091.88;5126690;27;20227;-79
2023/09/30 05:26:45;;;;;;;10.30;3.90;;;;;;;-145.69;66.26;52080.00;5123823;27;20850;-79
2023/09/30 05:29:12;;;;;;;12.30;3.90;;;;;;;-145.69;66.11;52076.03;5114727;27;20651;-80
2023/09/30 05:31:39;;;;;;;15.55;4.53;;;;;;;-145.69;66.28;52089.91;5114747;28;20670;-80
2023/09/30 05:34:05;;;;;;;12.23;3.78;;;;;;;-145.69;66.28;52068.13;5114686;28;20275;-80
2023/09/30 05:36:32;;;;;;;12.75;4.13;;;;;;;-145.69;66.33;52085.94;5114372;28;20658;-79
2023/09/30 05:38:58;;;;;;;10.50;3.63;;;;;;;-145.69;66.48;52083.97;5114373;28;20197;-79
2023/09/30 05:41:27;;;;;;;10.07;3.72;;;;;;;-145.69;66.60;52091.88;5114525;28;20230;-80
2023/09/30 05:43:54;;;;;;;12.43;4.20;;;;;;;-145.69;66.17;52089.91;5114062;28;20247;-79
2023/09/30 05:46:21;;;;;;;13.30;4.30;;;;;;;-145.69;65.52;52083.97;5114410;28;20221;-79
2023/09/30 05:48:48;;;;;;;16.55;4.85;;;;;;;-145.69;65.88;52083.97;5114397;28;20244;-79
2023/09/30 05:51:15;;;;;;;12.65;4.15;;;;;;;-145.69;65.80;52056.25;5114093;28;20197;-79
2023/09/30 05:53:41;;;;;;;9.50;3.47;;;;;;;-145.69;65.18;52082.00;5124822;27;20327;-79
2023/09/30 05:56:08;;;;;;;13.18;3.97;;;;;;;-145.69;64.29;52083.97;5134923;27;20209;-79
2023/09/30 05:58:37;;;;;;;10.93;3.35;;;;;;;-145.69;63.95;52066.16;5130838;27;20212;-80
2023/09/30 06:01:08;;;;;;;8.57;3.00;;;;;;;-145.69;64.91;52097.84;5131083;27;20201;-79
2023/09/30 06:03:39;;;;;;;9.88;3.63;;;;;;;-145.69;65.86;52054.25;5093644;28;20194;-78
2023/09/30 06:06:12;;;;;;;11.82;3.67;;;;;;;-145.69;65.77;52083.97;5093624;28;20234;-79
2023/09/30 06:08:38;;;;;;;14.13;4.20;;;;;;;-145.69;66.58;52095.84;5093676;28;20684;-79
2023/09/30 06:11:05;;;;;;;9.90;3.63;;;;;;;-145.69;67.09;52080.00;5093459;28;20202;-79
2023/09/30 06:13:33;;;;;;;12.32;3.60;;;;;;;-145.69;66.42;52095.84;5128465;27;20200;-80
2023/09/30 06:16:02;;;;;;;11.52;4.15;;;;;;;-145.69;65.93;52068.13;5134266;27;20208;-79
2023/09/30 06:18:28;;;;;;;13.48;4.35;;;;;;;-145.69;66.18;52068.13;5134272;27;20593;-80
2023/09/30 06:20:55;;;;;;;9.23;3.60;;;;;;;-145.69;66.06;52054.25;5134327;27;20200;-79
2023/09/30 06:23:21;;;;;;;10.30;3.97;;;;;;;-145.69;65.93;52068.13;5126093;27;20202;-80
2023/09/30 06:25:48;;;;;;;12.02;4.07;;;;;;;-145.69;65.64;52072.09;5113565;28;20588;-80
2023/09/30 06:28:14;;;;;;;12.70;3.72;;;;;;;-145.69;65.58;52060.22;5114373;28;20208;-79
2023/09/30 06:30:42;;;;;;;13.40;4.72;;;;;;;-145.69;65.56;52046.34;5113815;28;20193;-79
2023/09/30 06:33:12;;;;;;;8.65;3.88;;;;;;;-145.69;65.83;52082.00;5113631;28;20288;-79
2023/09/30 06:35:40;;;;;;;13.63;4.30;;;;;;;-145.69;67.47;52070.09;5112683;28;20431;-79
2023/09/30 06:38:07;;;;;;;8.45;3.33;;;;;;;-145.69;66.42;52062.19;5113280;28;20203;-79
2023/09/30 06:40:34;;;;;;;10.80;4.05;;;;;;;-145.69;66.19;52052.28;5113675;28;20597;-79
2023/09/30 06:43:00;;;;;;;9.07;3.13;;;;;;;-145.69;65.60;52056.25;5113599;28;20224;-79
2023/09/30 06:45:27;;;;;;;8.85;3.75;;;;;;;-145.69;65.45;52064.16;5113439;28;20260;-79
2023/09/30 06:47:54;;;;;;;8.27;3.45;;;;;;;-145.69;64.97;52032.47;5113550;28;20201;-79
2023/09/30 06:50:23;;;;;;;9.02;3.47;;;;;;;-145.69;64.79;52060.22;5113321;28;20200;-79
2023/09/30 06:52:50;;;;;;;6.78;3.03;;;;;;;-145.69;64.51;52032.47;5115981;28;20196;-79
2023/09/30 06:55:17;;;;;;;13.80;4.43;;;;;;;-145.69;64.24;52040.41;5134012;27;20232;-78
2023/09/30 06:57:43;;;;;;;9.75;4.10;;;;;;;-145.69;64.20;52050.31;5133897;27;20205;-79
2023/09/30 07:00:11;;;;;;;11.70;4.10;;;;;;;-145.69;64.38;52040.41;5133668;27;20197;-79
2023/09/30 07:02:40;;;;;;;8.50;3.25;;;;;;;-145.69;63.87;52044.38;5133397;27;20193;-79
2023/09/30 07:05:08;;;;;;;9.10;3.50;;;;;;;-145.69;63.49;52020.59;5134000;27;20236;-79
2023/09/30 07:07:36;;;;;;;9.65;3.58;;;;;;;-145.69;63.42;52020.59;5131078;27;20197;-80
2023/09/30 07:10:02;;;;;;;11.52;3.67;;;;;;;-145.69;62.85;52020.59;5094723;28;20269;-79
2023/09/30 07:12:29;;;;;;;11.90;4.25;;;;;;;-145.69;61.69;52008.72;5107429;28;20270;-79
2023/09/30 07:14:55;;;;;;;11.73;4.38;;;;;;;-145.69;61.62;52020.59;5112941;28;20206;-79
2023/09/30 07:17:21;;;;;;;12.52;3.72;;;;;;;-145.69;60.89;52036.44;5115075;28;20675;-79
2023/09/30 07:19:48;;;;;;;12.35;4.35;;;;;;;-145.69;60.26;52030.50;5116949;28;20692;-78
2023/09/30 07:22:15;;;;;;;10.80;3.55;;;;;;;-145.69;60.20;52002.78;5116784;28;20659;-79
2023/09/30 07:24:43;;;;;;;9.77;3.85;;;;;;;-145.69;59.21;52008.72;5135340;27;20224;-79
2023/09/30 07:27:09;;;;;;;10.23;3.60;;;;;;;-145.69;58.66;52004.75;5137718;27;20197;-79
2023/09/30 07:29:36;;;;;;;11.57;3.75;;;;;;;-145.69;58.53;52028.53;5137471;27;20722;-79
2023/09/30 07:32:02;;;;;;;15.90;4.45;;;;;;;-145.69;58.18;52026.53;5127356;27;20189;-79
2023/09/30 07:34:29;;;;;;;14.45;4.50;;;;;;;-145.69;57.27;52020.59;5116937;28;20640;-79
2023/09/30 07:36:55;;;;;;;13.07;4.10;;;;;;;-145.69;57.30;52008.72;5116706;28;20672;-79
2023/09/30 07:39:21;;;;;;;13.27;4.35;;;;;;;-145.69;58.45;51996.84;5116785;28;20729;-79
2023/09/30 07:41:49;;;;;;;12.60;3.80;;;;;;;-145.69;57.73;51992.88;5123654;27;20200;-79
2023/09/30 07:44:16;;;;;;;10.18;3.90;;;;;;;-145.69;57.43;52010.69;5126487;27;20201;-79
2023/09/30 07:46:43;;;;;;;10.23;4.30;;;;;;;-145.69;58.40;52044.38;5116574;28;20369;-79
2023/09/30 07:49:10;;;;;;;12.55;4.38;;;;;;;-145.69;58.36;52010.69;5116486;28;20204;-79
2023/09/30 07:51:36;;;;;;;13.68;4.57;;;;;;;-145.69;58.07;52030.50;5116488;28;20747;-79
2023/09/30 07:54:04;;;;;;;16.92;4.32;;;;;;;-145.69;58.10;52028.53;5116356;28;20594;-79
2023/09/30 07:56:30;;;;;;;13.48;3.95;;;;;;;-145.69;57.73;52024.56;5116653;28;20197;-79
2023/09/30 07:58:58;;;;;;;12.52;4.32;;;;;;;-145.69;57.32;52000.81;5116442;27;20202;-80
2023/09/30 08:01:24;;;;;;;15.27;4.50;;;;;;;-145.69;57.20;52016.66;5116227;28;20198;-80
2023/09/30 08:03:51;;;;;;;12.77;4.47;;;;;;;-145.69;57.22;51996.84;5116764;28;20197;-80
2023/09/30 08:06:17;;;;;;;14.27;4.53;;;;;;;-145.69;57.17;52004.75;5113283;28;20213;-79
2023/09/30 08:08:44;;;;;;;13.07;4.88;;;;;;;-145.69;56.94;52016.66;5120035;27;20233;-79
2023/09/30 08:11:10;;;;;;;10.70;4.40;;;;;;;-145.69;56.37;51990.91;5102025;27;20212;-79
2023/09/30 08:13:36;;;;;;;11.55;4.10;;;;;;;-145.69;55.72;52006.75;5121589;27;20193;-80
2023/09/30 08:16:04;;;;;;;8.82;3.42;;;;;;;-145.69;54.01;52006.75;5125528;27;20201;-80
2023/09/30 08:18:32;;;;;;;11.50;3.95;;;;;;;-145.69;54.58;51975.06;5122536;27;20702;-80
2023/09/30 08:20:58;;;;;;;14.50;3.85;;;;;;;-145.69;54.22;51994.88;5136395;27;20640;-79
2023/09/30 08:23:25;;;;;;;10.60;3.58;;;;;;;-145.69;54.60;52016.66;5116330;27;20686;-79
2023/09/30 08:25:52;;;;;;;12.60;4.05;;;;;;;-145.69;54.84;51998.81;5115833;28;20226;-80
2023/09/30 08:28:18;;;;;;;11.25;3.88;;;;;;;-145.69;54.63;51990.91;5114732;28;20217;-79
2023/09/30 08:30:46;;;;;;;12.38;4.18;;;;;;;-145.69;54.00;51998.81;5115684;28;20284;-78
2023/09/30 08:33:13;;;;;;;9.98;3.38;;;;;;;-145.69;53.75;51973.06;5115794;28;20221;-79
2023/09/30 08:35:40;;;;;;;10.57;4.47;;;;;;;-145.69;53.68;52000.81;5115806;28;20652;-79
2023/09/30 08:38:06;;;;;;;12.50;3.92;;;;;;;-145.69;53.45;52044.38;5117590;28;20196;-80
2023/09/30 08:40:33;;;;;;;11.27;3.60;;;;;;;-145.69;52.98;51996.84;5129832;27;20201;-80
2023/09/30 08:43:00;;;;;;;11.95;3.85;;;;;;;-145.69;53.13;52014.66;5132662;27;20192;-80
2023/09/30 08:45:29;;;;;;;12.43;4.40;;;;;;;-145.69;52.71;51998.81;5135975;27;20759;-79
2023/09/30 08:47:55;;;;;;;11.10;4.05;;;;;;;-145.69;52.38;51996.84;5117712;27;20209;-79
2023/09/30 08:50:23;;;;;;;13.00;3.75;;;;;;;-145.69;52.15;52018.63;5120673;27;20559;-79
2023/09/30 08:52:50;;;;;;;10.75;4.13;;;;;;;-145.69;52.51;51996.84;5123149;27;20189;-80
2023/09/30 08:55:17;;;;;;;12.98;4.32;;;;;;;-145.69;52.52;51992.88;5115016;28;20197;-79
2023/09/30 08:57:44;;;;;;;10.30;3.63;;;;;;;-145.69;51.72;51996.84;5114837;28;20189;-79
2023/09/30 09:00:13;;;;;;;10.30;3.30;;;;;;;-145.69;51.38;51959.22;5119209;27;20199;-79
2023/09/30 09:02:40;;;;;;;11.70;4.00;;;;;;;-145.69;51.23;51996.84;5131343;27;20639;-79
2023/09/30 09:05:08;;;;;;;10.88;4.00;;;;;;;-145.69;51.26;51965.16;5110274;28;20572;-79
2023/09/30 09:07:36;;;;;;;12.07;4.25;;;;;;;-145.69;50.34;51986.94;5115132;28;20204;-80
2023/09/30 09:10:08;;;;;;;13.75;4.43;;;;;;;-145.69;50.04;51969.13;5114971;28;20201;-80
2023/09/30 09:12:36;;;;;;;9.52;3.55;;;;;;;-145.69;50.21;51977.03;5126542;27;20197;-80
2023/09/30 09:15:06;;;;;;;10.27;3.53;;;;;;;-145.69;50.09;51953.28;5118631;27;20201;-79
2023/09/30 09:17:43;;;;;;;14.75;4.45;;;;;;;-145.69;50.32;51981.00;5111181;28;20597;-79
2023/09/30 09:20:11;;;;;;;11.93;4.22;;;;;;;-145.69;51.30;51977.03;5114918;28;20205;-80
2023/09/30 09:22:42;;;;;;;15.52;4.72;;;;;;;-145.69;51.53;51986.94;5114781;28;20221;-80
2023/09/30 09:25:09;;;;;;;12.43;4.00;;;;;;;-145.69;51.19;52006.75;5129874;27;20197;-80
2023/09/30 09:27:37;;;;;;;12.35;4.00;;;;;;;-145.69;51.14;51953.28;5135399;27;20207;-79
2023/09/30 09:30:17;;;;;;;11.18;4.50;;;;;;;-145.69;52.15;51979.03;5135575;27;20208;-79
2023/09/30 09:32:54;;;;;;;13.90;4.20;;;;;;;-145.69;50.87;51965.16;5135204;27;20209;-79
2023/09/30 09:35:21;;;;;;;12.25;4.35;;;;;;;-145.69;50.40;51979.03;5134940;27;20200;-79
2023/09/30 09:37:57;;;;;;;11.48;4.22;;;;;;;-145.69;50.04;51982.97;5133395;27;20277;-79
2023/09/30 09:40:24;;;;;;;11.65;4.18;;;;;;;-145.69;49.91;51961.19;5134732;27;20245;-79
2023/09/30 09:42:53;;;;;;;8.43;3.25;;;;;;;-145.69;49.96;51965.16;5134897;27;20196;-79
2023/09/30 09:45:22;;;;;;;13.35;3.63;;;;;;;-145.69;49.98;51981.00;5115459;27;20620;-79
2023/09/30 09:47:51;;;;;;;11.18;3.95;;;;;;;-145.69;48.60;51984.97;5114188;27;20564;-80
2023/09/30 09:50:18;;;;;;;12.48;4.80;;;;;;;-145.69;46.62;52010.69;5093835;28;20224;-80
2023/09/30 09:52:48;;;;;;;10.27;3.63;;;;;;;-145.69;46.52;51971.09;5104958;28;20200;-79
2023/09/30 09:55:16;;;;;;;16.80;3.95;;;;;;;-145.69;46.41;51961.19;5114141;28;20254;-79
2023/09/30 09:57:44;;;;;;;9.70;3.60;;;;;;;-145.69;46.08;51961.19;5113882;28;20652;-80
2023/09/30 10:00:14;;;;;;;16.88;4.85;;;;;;;-145.69;44.53;51981.00;5113908;28;20233;-79
2023/09/30 10:02:41;;;;;;;16.67;5.47;;;;;;;-145.69;44.70;51975.06;5120554;27;20204;-80
2023/09/30 10:05:11;;;;;;;14.95;5.15;;;;;;;-145.69;44.69;51977.03;5134437;27;20671;-79
2023/09/30 10:07:41;;;;;;;12.43;4.43;;;;;;;-145.69;44.91;52010.69;5134704;27;20201;-79
2023/09/30 10:10:13;;;;;;;14.48;5.43;;;;;;;-145.69;43.65;51973.06;5134282;27;20212;-79
2023/09/30 10:12:42;;;;;;;15.10;5.13;;;;;;;-145.69;44.01;51981.00;5119771;27;20198;-80
2023/09/30 10:15:39;;;;;;;17.08;6.10;;;;;;;-145.69;42.82;51981.00;5129698;27;20809;-79
2023/09/30 10:18:07;;;;;;;15.93;5.07;;;;;;;-145.69;43.15;51965.16;5100471;28;20236;-79
2023/09/30 10:20:35;;;;;;;16.17;5.03;;;;;;;-145.69;42.31;51953.28;5113940;28;20201;-80
2023/09/30 10:23:22;;;;;;;17.55;5.68;;;;;;;-145.69;40.98;51961.19;5113521;28;20197;-79
2023/09/30 10:25:51;;;;;;;19.98;6.28;;;;;;;-145.69;41.19;51977.03;5113434;28;20628;-79
2023/09/30 10:28:41;;;;;;;17.40;6.07;;;;;;;-145.69;40.83;51949.31;5113305;28;20572;-80
2023/09/30 10:31:15;;;;;;;18.58;7.13;;;;;;;-145.69;39.41;51951.28;5113470;27;20189;-79
2023/09/30 10:34:30;;;;;;;18.08;6.15;;;;;;;-145.69;38.80;51955.25;5113500;28;20254;-79
2023/09/30 10:36:57;;;;;;;20.08;6.82;;;;;;;-145.69;39.50;51973.06;5113160;28;20201;-80
2023/09/30 10:39:56;;;;;;;20.60;7.45;;;;;;;-145.69;39.11;51925.56;5113098;28;20709;-79
2023/09/30 10:42:45;;;;;;;23.77;7.15;;;;;;;-145.69;38.56;51933.47;5113395;28;20753;-79
2023/09/30 10:45:45;;;;;;;20.70;7.22;;;;;;;-145.69;38.22;51931.50;5118054;28;20197;-80
2023/09/30 10:48:37;;;;;;;22.98;6.50;;;;;;;-145.69;39.15;51901.78;5117385;28;20251;-79
2023/09/30 10:51:18;;;;;;;18.63;6.47;;;;;;;-145.69;38.57;51951.28;5112563;28;20201;-79
2023/09/30 10:53:52;;;;;;;19.30;6.30;;;;;;;-145.69;38.78;51923.56;5113132;28;20197;-80
2023/09/30 10:56:20;;;;;;;20.23;6.82;;;;;;;-145.69;39.37;51905.75;5113387;28;20204;-81
2023/09/30 10:58:48;;;;;;;18.80;6.57;;;;;;;-145.69;38.02;51917.63;5113147;28;20209;-79
2023/09/30 11:01:17;;;;;;;19.90;6.80;;;;;;;-145.69;37.04;51909.72;5113175;28;20726;-80
2023/09/30 11:03:45;;;;;;;18.45;6.63;;;;;;;-145.69;36.73;51897.84;5121695;28;20200;-80
2023/09/30 11:06:17;;;;;;;19.98;7.20;;;;;;;-145.69;36.60;51883.97;5133693;27;20213;-80
2023/09/30 11:08:46;;;;;;;18.15;6.75;;;;;;;-145.69;36.30;51878.03;5133822;27;20200;-80
2023/09/30 11:11:14;;;;;;;22.08;6.25;;;;;;;-145.69;36.29;51852.28;5133502;27;20197;-80
2023/09/30 11:13:40;;;;;;;18.85;6.63;;;;;;;-145.69;36.21;51876.06;5111758;27;20196;-80